Time;durP1;ratioP1;P1;durP2;ratioP2;P2;SDS_P1;SDS_P2;PMS_P1;PMS_P2;Temp;Humidity;BMP_temperature;BMP_pressure;BME280_temperature;BME280_humidity;BME280_pressure;Samples;Min_cycle;Max_cycle;Signal;HPM_P1;HPM_P2
2022/02/16 00:00:20;;;;;;;12.95;8.07;;;8.10;99.90;;;;;;4916110;29;20091;-80
2022/02/16 00:02:53;;;;;;;15.02;8.73;;;8.10;99.90;;;;;;4915793;29;20079;-80
2022/02/16 00:05:36;;;;;;;16.35;9.80;;;8.10;99.90;;;;;;4899674;29;20130;-80
2022/02/16 00:08:20;;;;;;;12.05;9.65;;;8.00;99.90;;;;;;4881149;29;20434;-80
2022/02/16 00:11:21;;;;;;;17.73;9.30;;;8.00;99.90;;;;;;4891029;29;20040;-79
2022/02/16 00:13:49;;;;;;;15.40;9.23;;;8.00;99.90;;;;;;4916560;29;20519;-80
2022/02/16 00:16:17;;;;;;;14.05;9.30;;;8.00;99.90;;;;;;4899462;29;20135;-79
2022/02/16 00:19:28;;;;;;;;;;;;;;;;;;;;;
2022/02/16 00:21:55;;;;;;;15.65;10.85;;;8.00;99.90;;;;;;4874068;29;20423;-80
2022/02/16 00:24:34;;;;;;;16.13;10.43;;;8.00;99.90;;;;;;4860665;29;20558;-80
2022/02/16 00:27:01;;;;;;;15.90;9.88;;;8.00;99.90;;;;;;4888042;29;20393;-80
2022/02/16 00:29:42;;;;;;;18.27;11.77;;;8.00;99.90;;;;;;4897808;29;20440;-78
2022/02/16 00:32:12;;;;;;;16.67;11.43;;;8.00;99.90;;;;;;4896147;29;20502;-80
2022/02/16 00:34:57;;;;;;;20.17;12.38;;;8.00;99.90;;;;;;4896067;29;20333;-77
2022/02/16 00:37:36;;;;;;;17.30;12.20;;;8.10;99.90;;;;;;4897748;29;20036;-81
2022/02/16 00:40:10;;;;;;;21.70;12.15;;;8.10;99.90;;;;;;4896074;29;20387;-81
2022/02/16 00:43:43;;;;;;;17.85;12.18;;;8.10;99.90;;;;;;4895278;29;20036;-80
2022/02/16 00:46:30;;;;;;;17.38;11.13;;;8.10;99.90;;;;;;4875205;29;20033;-81
2022/02/16 00:49:20;;;;;;;15.77;11.23;;;8.10;99.90;;;;;;4824169;29;20080;-78
2022/02/16 00:51:46;;;;;;;17.30;10.82;;;8.10;99.90;;;;;;4833717;29;20525;-79
2022/02/16 00:54:12;;;;;;;18.67;11.27;;;8.10;99.90;;;;;;4874241;29;20407;-78
2022/02/16 00:56:40;;;;;;;15.85;10.95;;;8.00;99.90;;;;;;4889763;29;20485;-78
2022/02/16 00:59:06;;;;;;;16.38;11.00;;;8.10;99.90;;;;;;4895766;29;20036;-79
2022/02/16 01:01:32;;;;;;;18.98;11.93;;;8.00;99.90;;;;;;4896159;29;20060;-78
2022/02/16 01:03:58;;;;;;;17.70;11.65;;;8.00;99.90;;;;;;4897569;29;20025;-77
2022/02/16 01:06:24;;;;;;;17.98;12.63;;;8.00;99.90;;;;;;4897130;29;20173;-78
2022/02/16 01:08:50;;;;;;;19.25;12.73;;;7.90;99.90;;;;;;4896937;29;20108;-78
2022/02/16 01:11:19;;;;;;;21.00;12.52;;;7.90;99.90;;;;;;4897372;29;20393;-78
2022/02/16 01:13:45;;;;;;;16.77;12.23;;;7.90;99.90;;;;;;4897137;29;20039;-78
2022/02/16 01:16:11;;;;;;;17.17;11.95;;;7.80;99.90;;;;;;4896849;29;20401;-78
2022/02/16 01:18:37;;;;;;;22.63;13.10;;;7.80;99.90;;;;;;4896918;29;20069;-77
2022/02/16 01:21:03;;;;;;;21.75;12.75;;;7.80;99.90;;;;;;4896865;29;20047;-78
2022/02/16 01:23:29;;;;;;;21.17;13.65;;;7.70;99.90;;;;;;4911174;29;20040;-78
2022/02/16 01:25:55;;;;;;;19.77;11.98;;;7.70;99.90;;;;;;4915989;29;20036;-80
2022/02/16 01:28:21;;;;;;;22.52;13.07;;;7.70;99.90;;;;;;4915852;29;20035;-80
2022/02/16 01:30:47;;;;;;;20.67;12.13;;;7.70;99.90;;;;;;4915592;29;20036;-77
2022/02/16 01:33:13;;;;;;;25.17;14.18;;;7.70;99.90;;;;;;4918732;29;20024;-79
2022/02/16 01:35:39;;;;;;;23.00;15.63;;;7.80;99.90;;;;;;4919839;29;20102;-80
2022/02/16 01:38:05;;;;;;;30.42;17.02;;;7.80;99.90;;;;;;4919790;29;20076;-76
2022/02/16 01:40:32;;;;;;;27.30;15.73;;;7.80;99.90;;;;;;4919113;29;20070;-80
2022/02/16 01:43:03;;;;;;;23.23;15.40;;;7.70;99.90;;;;;;4919003;29;20032;-79
2022/02/16 01:45:30;;;;;;;27.05;16.23;;;7.70;99.90;;;;;;4919251;29;20036;-78
2022/02/16 01:48:21;;;;;;;22.13;13.55;;;7.70;99.90;;;;;;4919552;29;20084;-78
2022/02/16 01:50:47;;;;;;;19.88;11.23;;;7.70;99.90;;;;;;4919915;29;20501;-80
2022/02/16 01:53:47;;;;;;;12.27;9.13;;;7.70;99.90;;;;;;4902918;29;20394;-80
2022/02/16 01:56:31;;;;;;;14.40;9.38;;;7.80;99.90;;;;;;4863336;29;20049;-80
2022/02/16 01:59:34;;;;;;;13.90;9.07;;;7.70;99.90;;;;;;4864394;29;20040;-80
2022/02/16 02:02:00;;;;;;;16.17;10.05;;;7.70;99.90;;;;;;4842544;29;20042;-79
2022/02/16 02:04:35;;;;;;;13.95;9.32;;;7.70;99.90;;;;;;4842724;29;20038;-81
2022/02/16 02:07:02;;;;;;;14.20;8.77;;;7.60;99.90;;;;;;4845469;29;20128;-78
2022/02/16 02:09:28;;;;;;;14.90;10.00;;;7.60;99.90;;;;;;4873703;29;20071;-79
2022/02/16 02:12:25;;;;;;;14.40;9.88;;;7.60;99.90;;;;;;4919305;29;20140;-80
2022/02/16 02:14:52;;;;;;;15.43;9.65;;;7.70;99.90;;;;;;4919650;29;20044;-80
2022/02/16 02:17:18;;;;;;;11.25;7.90;;;7.70;99.90;;;;;;4919210;29;20040;-78
2022/02/16 02:19:47;;;;;;;13.60;9.35;;;7.70;99.90;;;;;;4919613;29;20114;-79
2022/02/16 02:22:19;;;;;;;16.08;9.45;;;7.70;99.90;;;;;;4919014;29;20040;-80
2022/02/16 02:25:04;;;;;;;19.90;8.25;;;7.70;99.90;;;;;;4901964;29;20044;-80
2022/02/16 02:27:34;;;;;;;12.48;8.10;;;7.70;99.90;;;;;;4901819;29;20063;-79
2022/02/16 02:30:00;;;;;;;15.27;9.05;;;7.70;99.90;;;;;;4919062;29;20036;-79
2022/02/16 02:32:37;;;;;;;16.20;10.23;;;7.70;99.90;;;;;;4902113;29;20043;-80
2022/02/16 02:35:29;;;;;;;14.23;10.55;;;7.70;99.90;;;;;;4902008;29;20071;-79
2022/02/16 02:38:05;;;;;;;18.20;11.70;;;7.70;99.90;;;;;;4901834;29;20044;-81
2022/02/16 02:40:31;;;;;;;19.45;10.38;;;7.60;99.90;;;;;;4917819;29;20090;-78
2022/02/16 02:42:57;;;;;;;15.85;9.60;;;7.60;99.90;;;;;;4918552;29;20513;-77
2022/02/16 02:45:23;;;;;;;16.45;11.02;;;7.60;99.90;;;;;;4917794;29;20036;-76
2022/02/16 02:47:49;;;;;;;15.30;10.32;;;7.60;99.90;;;;;;4918496;29;20075;-80
2022/02/16 02:50:15;;;;;;;15.57;9.55;;;7.60;99.90;;;;;;4918375;29;20043;-80
2022/02/16 02:52:42;;;;;;;11.90;8.77;;;7.60;99.90;;;;;;4918479;29;20080;-78
2022/02/16 02:55:10;;;;;;;13.13;8.80;;;7.60;99.90;;;;;;4901784;29;20080;-78
2022/02/16 02:57:39;;;;;;;18.52;9.55;;;7.60;99.90;;;;;;4918090;29;20111;-78
2022/02/16 03:00:07;;;;;;;16.50;10.82;;;7.60;99.90;;;;;;4918062;29;20044;-81
2022/02/16 03:02:34;;;;;;;16.73;10.63;;;7.60;99.90;;;;;;4918007;29;20139;-78
2022/02/16 03:05:03;;;;;;;16.33;10.30;;;7.60;99.90;;;;;;4917990;29;20036;-78
2022/02/16 03:07:29;;;;;;;19.33;10.27;;;7.60;99.90;;;;;;4917756;29;20469;-79
2022/02/16 03:10:00;;;;;;;17.00;9.57;;;7.60;99.90;;;;;;4917317;29;20038;-78
2022/02/16 03:12:25;;;;;;;15.25;10.52;;;7.60;99.90;;;;;;4917738;29;20047;-78
2022/02/16 03:14:52;;;;;;;15.73;10.60;;;7.60;99.90;;;;;;4917585;29;20409;-78
2022/02/16 03:17:18;;;;;;;19.45;13.45;;;7.60;99.90;;;;;;4917457;29;20032;-78
2022/02/16 03:19:44;;;;;;;20.67;13.23;;;7.60;99.90;;;;;;4917638;29;20033;-77
2022/02/16 03:22:11;;;;;;;22.48;14.30;;;7.60;99.90;;;;;;4917642;29;20083;-78
2022/02/16 03:24:36;;;;;;;21.88;14.00;;;7.60;99.90;;;;;;4917448;29;20040;-80
2022/02/16 03:27:03;;;;;;;19.17;13.88;;;7.60;99.90;;;;;;4917330;29;20107;-79
2022/02/16 03:29:29;;;;;;;24.52;13.45;;;7.60;99.90;;;;;;4917372;29;20039;-80
2022/02/16 03:31:55;;;;;;;21.15;12.20;;;7.60;99.90;;;;;;4917530;29;20036;-78
2022/02/16 03:34:45;;;;;;;24.60;12.07;;;7.60;99.90;;;;;;4917708;29;20441;-79
2022/02/16 03:37:11;;;;;;;16.80;11.32;;;7.50;99.90;;;;;;4900333;29;20438;-77
2022/02/16 03:39:44;;;;;;;21.52;13.60;;;7.50;99.90;;;;;;4898899;29;20032;-78
2022/02/16 03:42:14;;;;;;;21.35;13.00;;;7.50;99.90;;;;;;4900196;29;20036;-78
2022/02/16 03:45:01;;;;;;;16.33;11.18;;;7.50;99.90;;;;;;4917219;29;20036;-80
2022/02/16 03:47:28;;;;;;;14.55;9.85;;;7.50;99.90;;;;;;4899396;29;20032;-81
2022/02/16 03:49:54;;;;;;;18.90;11.25;;;7.50;99.90;;;;;;4917092;29;20115;-78
2022/02/16 03:52:36;;;;;;;23.83;13.75;;;7.50;99.90;;;;;;4917420;29;20056;-80
2022/02/16 03:55:25;;;;;;;23.52;15.05;;;7.40;99.90;;;;;;4916742;29;20051;-80
2022/02/16 03:58:13;;;;;;;;;;;;;;;;;;;;;
2022/02/16 04:00:58;;;;;;;19.27;12.52;;;7.30;99.90;;;;;;4916163;29;20031;-79
2022/02/16 04:07:03;;;;;;;21.38;12.27;;;7.30;99.90;;;;;;4836910;29;20077;-78
2022/02/16 04:09:38;;;;;;;16.60;10.57;;;7.20;99.90;;;;;;4904865;29;20060;-80
2022/02/16 04:12:08;;;;;;;19.17;11.43;;;7.20;99.90;;;;;;4916801;29;20032;-80
2022/02/16 04:14:34;;;;;;;25.05;10.90;;;7.20;99.90;;;;;;4916874;29;20472;-77
2022/02/16 04:17:01;;;;;;;15.52;11.23;;;7.10;99.90;;;;;;4916888;29;20067;-79
2022/02/16 04:19:27;;;;;;;17.30;11.98;;;7.10;99.90;;;;;;4916639;29;20114;-77
2022/02/16 04:21:53;;;;;;;20.52;12.10;;;7.10;99.90;;;;;;4916524;29;20524;-78
2022/02/16 04:24:19;;;;;;;19.27;11.75;;;7.00;99.90;;;;;;4917224;29;20048;-77
2022/02/16 04:26:46;;;;;;;16.33;11.48;;;7.00;99.90;;;;;;4917110;29;20036;-80
2022/02/16 04:29:12;;;;;;;15.30;10.02;;;7.00;99.90;;;;;;4916792;29;20040;-80
2022/02/16 04:31:41;;;;;;;23.50;11.85;;;6.90;99.90;;;;;;4916857;29;20051;-79
2022/02/16 04:34:07;;;;;;;15.10;9.77;;;6.90;99.90;;;;;;4916047;29;20686;-77
2022/02/16 04:36:33;;;;;;;16.83;10.20;;;6.80;99.90;;;;;;4916181;29;20040;-77
2022/02/16 04:39:00;;;;;;;16.52;10.80;;;6.80;99.90;;;;;;4916735;29;20531;-78
2022/02/16 04:41:27;;;;;;;16.60;9.95;;;6.70;99.90;;;;;;4916760;29;20043;-77
2022/02/16 04:43:54;;;;;;;23.92;10.85;;;6.70;99.90;;;;;;4899662;29;20040;-78
2022/02/16 04:46:20;;;;;;;27.10;13.25;;;6.70;99.90;;;;;;4916686;29;20126;-78
2022/02/16 04:48:46;;;;;;;21.95;11.32;;;6.70;99.90;;;;;;4916536;29;20501;-78
2022/02/16 04:51:12;;;;;;;26.83;14.65;;;6.70;99.90;;;;;;4916717;29;20035;-79
2022/02/16 04:53:38;;;;;;;31.90;15.88;;;6.70;99.90;;;;;;4916336;29;20044;-80
2022/02/16 04:56:05;;;;;;;33.80;17.27;;;6.60;99.90;;;;;;4916717;29;20130;-81
2022/02/16 04:58:32;;;;;;;38.30;21.15;;;6.60;99.90;;;;;;4899408;29;20032;-80
2022/02/16 05:01:01;;;;;;;51.63;26.10;;;6.70;99.90;;;;;;4916360;29;20119;-80
2022/02/16 05:03:27;;;;;;;58.88;29.67;;;6.70;99.90;;;;;;4915765;29;20039;-77
2022/02/16 05:05:53;;;;;;;69.25;35.67;;;6.70;99.90;;;;;;4916034;29;20072;-80
2022/02/16 05:08:19;;;;;;;66.38;34.58;;;6.80;99.90;;;;;;4915733;29;20110;-80
2022/02/16 05:10:45;;;;;;;70.95;36.10;;;6.70;99.90;;;;;;4915974;29;20037;-77
2022/02/16 05:13:11;;;;;;;93.70;41.67;;;6.70;99.90;;;;;;4916457;29;20043;-80
2022/02/16 05:15:37;;;;;;;83.15;42.17;;;6.70;99.90;;;;;;4915846;29;20052;-78
2022/02/16 05:18:06;;;;;;;91.30;45.22;;;6.70;99.90;;;;;;4916084;29;20109;-80
2022/02/16 05:20:31;;;;;;;81.95;40.33;;;6.70;99.90;;;;;;4915612;29;20028;-78
2022/02/16 05:23:04;;;;;;;76.85;38.20;;;6.70;99.90;;;;;;4915870;29;20040;-78
2022/02/16 05:25:30;;;;;;;85.78;42.53;;;6.70;99.90;;;;;;4916178;29;20065;-77
2022/02/16 05:27:56;;;;;;;90.75;41.92;;;6.70;99.90;;;;;;4899247;29;20029;-78
2022/02/16 05:30:22;;;;;;;80.05;40.70;;;6.70;99.90;;;;;;4916317;29;20039;-78
2022/02/16 05:32:51;;;;;;;91.50;42.10;;;6.70;99.90;;;;;;4916202;29;20433;-78
2022/02/16 05:35:17;;;;;;;81.55;38.80;;;6.70;99.90;;;;;;4898799;29;20787;-78
2022/02/16 05:37:43;;;;;;;93.57;45.05;;;6.70;99.90;;;;;;4915719;29;20029;-79
2022/02/16 05:40:09;;;;;;;96.18;47.33;;;6.70;99.90;;;;;;4915513;29;20126;-78
2022/02/16 05:42:36;;;;;;;88.07;45.38;;;6.60;99.90;;;;;;4915998;29;20032;-77
2022/02/16 05:45:03;;;;;;;88.00;43.80;;;6.60;99.90;;;;;;4915801;29;20059;-80
2022/02/16 05:47:29;;;;;;;84.80;44.08;;;6.60;99.90;;;;;;4915782;29;20039;-81
2022/02/16 05:49:55;;;;;;;87.70;42.13;;;6.60;99.90;;;;;;4915931;29;20037;-80
2022/02/16 05:52:21;;;;;;;88.78;42.17;;;6.50;99.90;;;;;;4914712;29;20160;-80
2022/02/16 05:54:49;;;;;;;82.13;42.70;;;6.50;99.90;;;;;;4915512;29;20405;-77
2022/02/16 05:57:15;;;;;;;86.18;44.33;;;6.50;99.90;;;;;;4915695;29;20044;-78
2022/02/16 05:59:41;;;;;;;84.13;41.90;;;6.50;99.90;;;;;;4898717;29;20036;-81
2022/02/16 06:02:08;;;;;;;83.40;42.20;;;6.60;99.90;;;;;;4915813;29;20039;-80
2022/02/16 06:04:34;;;;;;;83.82;42.88;;;6.50;99.90;;;;;;4916000;29;20076;-80
2022/02/16 06:07:00;;;;;;;83.97;41.67;;;6.50;99.90;;;;;;4915904;29;20115;-77
2022/02/16 06:09:27;;;;;;;86.40;41.20;;;6.50;99.90;;;;;;4915577;29;20040;-76
2022/02/16 06:11:56;;;;;;;74.57;39.42;;;6.50;99.90;;;;;;4915806;29;20044;-77
2022/02/16 06:14:22;;;;;;;70.65;35.83;;;6.50;99.90;;;;;;4915503;29;20032;-78
2022/02/16 06:16:48;;;;;;;58.88;30.40;;;6.50;99.90;;;;;;4914574;29;20044;-77
2022/02/16 06:19:14;;;;;;;54.63;27.25;;;6.50;99.90;;;;;;4916228;29;20115;-77
2022/02/16 06:21:41;;;;;;;75.03;36.42;;;6.40;99.90;;;;;;4918776;29;20036;-81
2022/02/16 06:24:08;;;;;;;68.47;35.40;;;6.40;99.90;;;;;;4902139;29;20139;-80
2022/02/16 06:26:36;;;;;;;52.85;27.85;;;6.50;99.90;;;;;;4917881;29;20128;-79
2022/02/16 06:29:02;;;;;;;54.60;27.60;;;6.50;99.90;;;;;;4918297;29;20123;-77
2022/02/16 06:31:28;;;;;;;40.97;21.38;;;6.60;99.90;;;;;;4918027;29;20060;-80
2022/02/16 06:34:34;;;;;;;32.58;18.10;;;6.90;99.90;;;;;;4884558;29;20056;-79
2022/02/16 06:37:06;;;;;;;37.83;21.25;;;7.40;99.90;;;;;;4912457;29;20040;-80
2022/02/16 06:39:32;;;;;;;32.58;20.42;;;8.20;99.90;;;;;;4918670;29;20087;-76
2022/02/16 06:41:58;;;;;;;26.60;16.30;;;8.80;99.90;;;;;;4918489;29;20048;-77
2022/02/16 06:44:24;;;;;;;25.02;15.57;;;8.90;99.90;;;;;;4919159;29;20043;-78
2022/02/16 06:46:50;;;;;;;30.38;16.95;;;8.80;99.90;;;;;;4917646;29;20516;-78
2022/02/16 06:49:16;;;;;;;28.48;17.20;;;8.80;99.90;;;;;;4918434;29;20067;-82
2022/02/16 06:51:45;;;;;;;34.90;18.95;;;8.60;99.90;;;;;;4918272;29;20068;-75
2022/02/16 06:54:11;;;;;;;35.08;18.27;;;8.40;99.90;;;;;;4900797;29;20040;-79
2022/02/16 06:56:37;;;;;;;32.13;17.30;;;8.40;99.90;;;;;;4916656;29;20032;-74
2022/02/16 06:59:03;;;;;;;32.75;16.67;;;8.70;99.90;;;;;;4918171;29;20028;-76
2022/02/16 07:01:29;;;;;;;32.55;17.50;;;8.80;99.90;;;;;;4918518;29;20040;-79
2022/02/16 07:03:57;;;;;;;28.20;17.67;;;8.70;99.90;;;;;;4918139;29;20032;-78
2022/02/16 07:06:23;;;;;;;35.42;17.13;;;8.50;99.90;;;;;;4917475;29;20039;-75
2022/02/16 07:08:49;;;;;;;30.25;17.20;;;8.30;99.90;;;;;;4917880;29;20028;-75
2022/02/16 09:52:33;;;;;;;25.15;17.25;;;28.50;95.50;;;;;;4855601;29;20042;-76
2022/02/16 11:31:57;;;;;;;47.10;35.72;;;18.00;97.50;;;;;;4797350;29;20138;-78
2022/02/16 11:34:23;;;;;;;43.85;32.63;;;17.60;98.70;;;;;;4808895;29;20053;-75
2022/02/16 12:28:32;;;;;;;;;;;;;;;;;;;;;
2022/02/16 12:35:09;;;;;;;74.90;49.25;;;12.90;99.90;;;;;;4857133;29;20052;-81
